Time;durP1;ratioP1;P1;durP2;ratioP2;P2;SDS_P1;SDS_P2;PMS_P1;PMS_P2;Temp;Humidity;BMP_temperature;BMP_pressure;BME280_temperature;BME280_humidity;BME280_pressure;Samples;Min_cycle;Max_cycle;Signal;HPM_P1;HPM_P2
2021/12/30 00:00:49;;;;;;;;;;;;;;;-21.53;50.90;98523.53;6372536;27;19923;-62
2021/12/30 00:03:50;;;;;;;;;;;;;;;-21.48;50.54;98527.31;6372350;27;19946;-63
2021/12/30 00:06:52;;;;;;;;;;;;;;;-21.45;50.82;98527.56;6371830;27;19924;-62
2021/12/30 00:09:53;;;;;;;;;;;;;;;-21.42;50.75;98532.81;6371462;27;20418;-63
2021/12/30 00:12:54;;;;;;;;;;;;;;;-21.42;50.44;98527.81;6372188;27;20003;-62
2021/12/30 00:15:56;;;;;;;;;;;;;;;-21.41;50.65;98523.69;6372251;27;19946;-62
2021/12/30 00:18:57;;;;;;;;;;;;;;;-21.37;51.10;98529.09;6371692;27;19998;-62
2021/12/30 00:21:58;;;;;;;;;;;;;;;-21.28;51.57;98533.03;6371162;27;19941;-62
2021/12/30 00:25:02;;;;;;;;;;;;;;;-21.19;50.99;98541.34;6372064;27;20396;-62
2021/12/30 00:28:05;;;;;;;;;;;;;;;-21.12;51.04;98543.59;6371303;27;20393;-64
2021/12/30 00:31:06;;;;;;;;;;;;;;;-21.05;50.62;98540.88;6371882;27;19930;-64
2021/12/30 00:34:07;;;;;;;;;;;;;;;-20.99;50.12;98536.38;6371505;27;20308;-63
2021/12/30 00:37:09;;;;;;;;;;;;;;;-20.97;50.66;98524.88;6370986;27;19923;-64
2021/12/30 00:40:11;;;;;;;;;;;;;;;-20.88;51.01;98525.63;6370859;27;20299;-63
2021/12/30 00:43:20;;;;;;;;;;;;;;;-20.76;50.88;98535.78;6338675;28;19923;-63
2021/12/30 00:46:25;;;;;;;;;;;;;;;-20.67;50.92;98535.66;6371770;28;20385;-63
2021/12/30 00:49:29;;;;;;;;;;;;;;;-20.58;50.58;98526.38;6371875;28;19927;-63
2021/12/30 00:52:33;;;;;;;;;;;;;;;-20.53;50.70;98545.16;6371738;28;19924;-63
2021/12/30 00:55:36;;;;;;;;;;;;;;;-20.50;50.17;98542.00;6370941;28;19930;-63
2021/12/30 00:58:39;;;;;;;;;;;;;;;-20.49;50.64;98542.13;6371569;28;19930;-63
2021/12/30 01:01:40;;;;;;;;;;;;;;;-20.44;50.79;98543.38;6370608;28;19923;-63
2021/12/30 01:04:41;;;;;;;;;;;;;;;-20.33;50.13;98543.38;6370913;28;20415;-62
2021/12/30 01:07:42;;;;;;;;;;;;;;;-20.28;51.06;98539.63;6370622;28;19923;-63
2021/12/30 01:10:43;;;;;;;;;;;;;;;-20.28;50.94;98553.00;6374698;27;20026;-63
2021/12/30 01:13:46;;;;;;;;;;;;;;;-20.25;51.57;98563.25;6375859;27;19972;-63
2021/12/30 01:16:52;;;;;;;;;;;;;;;-20.00;52.03;98555.22;6376431;27;19923;-63
2021/12/30 01:19:53;;;;;;;;;;;;;;;-19.88;52.98;98555.31;6375734;27;19923;-63
2021/12/30 01:22:54;;;;;;;;;;;;;;;-19.87;53.34;98544.53;6376264;27;20083;-63
2021/12/30 01:25:58;;;;;;;;;;;;;;;-19.79;54.77;98551.91;6376445;27;19915;-62
2021/12/30 01:28:59;;;;;;;;;;;;;;;-19.96;53.89;98553.06;6376182;27;20304;-62
2021/12/30 01:32:01;;;;;;;;;;;;;;;-19.93;53.54;98557.44;6376190;27;20300;-64
2021/12/30 01:35:04;;;;;;;;;;;;;;;-19.89;53.77;98561.09;6376181;27;19919;-63
2021/12/30 01:38:12;;;;;;;;;;;;;;;-19.85;53.44;98560.56;6375945;27;20381;-63
2021/12/30 01:41:13;;;;;;;;;;;;;;;-19.79;53.81;98548.53;6376026;27;19927;-63
2021/12/30 01:44:14;;;;;;;;;;;;;;;-19.78;54.09;98547.78;6375739;27;19924;-63
2021/12/30 01:47:15;;;;;;;;;;;;;;;-19.75;53.65;98548.03;6375112;27;20027;-63
2021/12/30 01:50:18;;;;;;;;;;;;;;;-19.68;53.35;98545.25;6375298;27;19923;-63
2021/12/30 01:53:22;;;;;;;;;;;;;;;-19.73;52.88;98541.50;6375630;27;19987;-64
2021/12/30 01:56:23;;;;;;;;;;;;;;;-19.77;53.18;98540.38;6375241;27;19924;-64
2021/12/30 01:59:24;;;;;;;;;;;;;;;-19.77;53.48;98539.50;6374996;27;20060;-62
2021/12/30 02:02:25;;;;;;;;;;;;;;;-19.77;54.06;98529.47;6374558;27;19923;-63
2021/12/30 02:05:28;;;;;;;;;;;;;;;-19.75;53.03;98527.97;6375273;27;19923;-63
2021/12/30 02:08:29;;;;;;;;;;;;;;;-19.72;53.20;98518.19;6374070;27;19923;-63
2021/12/30 02:11:30;;;;;;;;;;;;;;;-19.64;52.87;98522.16;6375151;27;19923;-64
2021/12/30 02:14:35;;;;;;;;;;;;;;;-19.57;52.97;98519.34;6374701;27;20064;-64
2021/12/30 02:17:38;;;;;;;;;;;;;;;-19.50;53.03;98521.59;6374911;27;19927;-64
2021/12/30 02:20:44;;;;;;;;;;;;;;;-19.44;52.96;98525.31;6373612;27;19930;-63
2021/12/30 02:23:46;;;;;;;;;;;;;;;-19.40;52.80;98520.66;6374812;27;20328;-64
2021/12/30 02:26:47;;;;;;;;;;;;;;;-19.33;52.79;98515.38;6374886;27;19923;-63
2021/12/30 02:29:48;;;;;;;;;;;;;;;-19.28;52.20;98513.19;6374547;27;20416;-63
2021/12/30 02:32:49;;;;;;;;;;;;;;;-19.21;52.57;98520.44;6374157;27;19923;-62
2021/12/30 02:35:51;;;;;;;;;;;;;;;-19.19;52.17;98521.41;6374481;27;20304;-63
2021/12/30 02:38:52;;;;;;;;;;;;;;;-19.18;52.41;98520.66;6373453;27;20317;-63
2021/12/30 02:41:53;;;;;;;;;;;;;;;-19.17;52.51;98522.41;6373856;27;19923;-63
2021/12/30 02:44:59;;;;;;;;;;;;;;;-19.12;52.30;98521.13;6374045;27;19923;-63
2021/12/30 02:48:00;;;;;;;;;;;;;;;-19.10;52.12;98514.59;6373573;27;19923;-63
2021/12/30 02:51:03;;;;;;;;;;;;;;;-19.11;52.26;98512.84;6373245;27;19923;-63
2021/12/30 02:54:04;;;;;;;;;;;;;;;-19.11;52.24;98515.34;6373337;27;19923;-63
2021/12/30 02:57:09;;;;;;;;;;;;;;;-19.08;52.22;98518.09;6373986;27;19938;-63
2021/12/30 03:00:10;;;;;;;;;;;;;;;-19.08;52.06;98509.69;6373711;27;20311;-63
2021/12/30 03:03:21;;;;;;;;;;;;;;;-19.08;52.14;98513.06;6373791;27;19924;-63
2021/12/30 03:06:22;;;;;;;;;;;;;;;-19.06;52.19;98509.06;6355585;27;20300;-63
2021/12/30 03:09:23;;;;;;;;;;;;;;;-19.01;51.47;98511.06;6373555;27;20388;-64
2021/12/30 03:12:27;;;;;;;;;;;;;;;-18.98;51.77;98508.78;6373453;27;19923;-63
2021/12/30 03:15:28;;;;;;;;;;;;;;;-18.95;52.14;98511.50;6372303;27;20092;-63
2021/12/30 03:18:30;;;;;;;;;;;;;;;-18.94;51.86;98510.72;6372764;27;19924;-63
2021/12/30 03:21:31;;;;;;;;;;;;;;;-18.94;52.02;98511.59;6373249;27;19923;-64
2021/12/30 03:24:32;;;;;;;;;;;;;;;-18.83;51.91;98512.41;6372808;27;20316;-62
2021/12/30 03:27:34;;;;;;;;;;;;;;;-18.81;51.86;98516.78;6372068;27;19946;-63
2021/12/30 03:30:35;;;;;;;;;;;;;;;-18.79;51.61;98511.91;6373068;27;19927;-63
2021/12/30 03:33:36;;;;;;;;;;;;;;;-18.69;52.04;98524.31;6372973;27;20293;-63
2021/12/30 03:36:37;;;;;;;;;;;;;;;-18.61;51.86;98522.41;6372458;27;19923;-62
2021/12/30 03:39:40;;;;;;;;;;;;;;;-18.65;51.69;98520.41;6371852;27;20408;-63
2021/12/30 03:42:44;;;;;;;;;;;;;;;-18.64;52.17;98510.50;6372728;27;19923;-63
2021/12/30 03:45:47;;;;;;;;;;;;;;;-18.60;51.60;98524.13;6372716;27;20504;-64
2021/12/30 03:48:49;;;;;;;;;;;;;;;-18.61;52.00;98518.25;6371559;27;20517;-64
2021/12/30 03:51:54;;;;;;;;;;;;;;;-18.59;52.03;98526.78;6372080;27;19927;-64
2021/12/30 03:54:55;;;;;;;;;;;;;;;-18.54;51.86;98528.72;6372689;27;19931;-63
2021/12/30 03:57:56;;;;;;;;;;;;;;;-18.51;52.20;98539.00;6371911;27;20296;-63
2021/12/30 04:00:57;;;;;;;;;;;;;;;-18.54;52.34;98531.25;6371763;27;19930;-64
2021/12/30 04:04:01;;;;;;;;;;;;;;;-18.61;52.44;98545.88;6371654;27;19930;-63
2021/12/30 04:07:02;;;;;;;;;;;;;;;-18.55;52.16;98542.06;6372134;27;19967;-64
2021/12/30 04:10:05;;;;;;;;;;;;;;;-18.47;52.20;98535.97;6336407;27;19929;-62
2021/12/30 04:13:06;;;;;;;;;;;;;;;-18.39;52.72;98539.94;6371708;27;19923;-63
2021/12/30 04:16:07;;;;;;;;;;;;;;;-18.29;52.25;98546.50;6371851;27;20367;-63
2021/12/30 04:19:08;;;;;;;;;;;;;;;-18.22;52.38;98554.59;6370982;27;20577;-63
2021/12/30 04:22:09;;;;;;;;;;;;;;;-18.18;52.08;98556.56;6370846;27;20021;-63
2021/12/30 04:25:12;;;;;;;;;;;;;;;-18.15;52.01;98541.72;6371047;27;20280;-63
2021/12/30 04:28:13;;;;;;;;;;;;;;;-18.07;51.89;98548.94;6371867;27;19923;-63
2021/12/30 04:31:13;;;;;;;;;;;;;;;-18.03;51.91;98550.91;6370837;27;19924;-63
2021/12/30 04:34:17;;;;;;;;;;;;;;;-17.91;52.01;98556.84;6372236;27;19923;-64
2021/12/30 04:37:20;;;;;;;;;;;;;;;-17.83;51.48;98555.75;6353111;27;20229;-64
2021/12/30 04:40:24;;;;;;;;;;;;;;;-17.77;51.32;98561.19;6369873;27;19927;-63
2021/12/30 04:43:25;;;;;;;;;;;;;;;-17.72;51.24;98569.91;6369958;27;19923;-64
2021/12/30 04:46:26;;;;;;;;;;;;;;;-17.67;51.39;98567.72;6352385;28;19923;-64
2021/12/30 04:49:27;;;;;;;;;;;;;;;-17.64;51.45;98572.09;6371365;28;20269;-63
2021/12/30 04:52:28;;;;;;;;;;;;;;;-17.57;51.24;98579.34;6370933;28;20382;-64
2021/12/30 04:55:29;;;;;;;;;;;;;;;-17.50;51.44;98576.47;6371497;28;19919;-63
2021/12/30 04:58:33;;;;;;;;;;;;;;;-17.43;51.28;98573.66;6371632;28;19923;-63
2021/12/30 05:01:34;;;;;;;;;;;;;;;-17.34;51.10;98578.44;6370934;28;19950;-64
2021/12/30 05:04:35;;;;;;;;;;;;;;;-17.24;51.01;98576.66;6370645;28;19930;-63
2021/12/30 05:07:36;;;;;;;;;;;;;;;-17.11;50.90;98570.84;6371166;28;20026;-63
2021/12/30 05:10:40;;;;;;;;;;;;;;;-16.97;50.63;98569.28;6370922;28;20265;-63
2021/12/30 05:13:43;;;;;;;;;;;;;;;-16.80;50.62;98560.38;6370671;28;19923;-64
2021/12/30 05:16:45;;;;;;;;;;;;;;;-16.65;50.23;98563.03;6371088;28;20466;-63
2021/12/30 05:19:46;;;;;;;;;;;;;;;-16.52;50.40;98558.94;6370231;28;19923;-64
2021/12/30 05:22:47;;;;;;;;;;;;;;;-16.39;50.09;98555.56;6370155;28;19984;-64
2021/12/30 05:25:48;;;;;;;;;;;;;;;-16.33;50.18;98556.00;6369829;28;20034;-64
2021/12/30 05:28:49;;;;;;;;;;;;;;;-16.32;49.96;98557.72;6352652;28;19973;-63
2021/12/30 05:31:50;;;;;;;;;;;;;;;-16.42;49.93;98562.91;6370286;28;19923;-63
2021/12/30 05:34:51;;;;;;;;;;;;;;;-16.47;50.45;98560.88;6370141;28;19942;-63
2021/12/30 05:37:53;;;;;;;;;;;;;;;-16.39;50.36;98550.53;6370344;28;20045;-63
2021/12/30 05:40:58;;;;;;;;;;;;;;;-16.22;50.28;98558.34;6371226;28;19919;-63
2021/12/30 05:44:00;;;;;;;;;;;;;;;-15.99;50.09;98562.34;6352352;28;19924;-64
2021/12/30 05:47:04;;;;;;;;;;;;;;;-15.79;49.67;98564.56;6370888;28;19919;-65
2021/12/30 05:50:07;;;;;;;;;;;;;;;-15.57;49.60;98556.66;6370838;28;19924;-64
2021/12/30 05:53:08;;;;;;;;;;;;;;;-15.48;49.00;98549.69;6370213;28;19930;-64
2021/12/30 05:56:11;;;;;;;;;;;;;;;-15.34;49.21;98552.19;6371606;27;20296;-63
2021/12/30 05:59:12;;;;;;;;;;;;;;;-15.21;49.10;98555.56;6356562;27;19963;-64
2021/12/30 06:02:16;;;;;;;;;;;;;;;-15.09;49.03;98547.88;6374947;27;19923;-64
2021/12/30 06:05:19;;;;;;;;;;;;;;;-15.07;49.09;98548.84;6375002;27;19927;-64
2021/12/30 06:08:20;;;;;;;;;;;;;;;-15.08;48.94;98567.31;6375172;27;20410;-63
2021/12/30 06:11:24;;;;;;;;;;;;;;;-15.19;49.29;98566.66;6375097;27;20019;-64
2021/12/30 06:14:25;;;;;;;;;;;;;;;-15.19;49.30;98568.31;6375444;27;19924;-64
2021/12/30 06:17:26;;;;;;;;;;;;;;;-15.12;49.40;98572.94;6374144;27;19923;-64
2021/12/30 06:20:30;;;;;;;;;;;;;;;-15.01;48.84;98577.00;6373154;27;19923;-63
2021/12/30 06:23:34;;;;;;;;;;;;;;;-14.83;48.68;98574.75;6374764;27;19923;-64
2021/12/30 06:26:35;;;;;;;;;;;;;;;-14.63;48.54;98573.44;6373773;27;19927;-64
2021/12/30 06:29:38;;;;;;;;;;;;;;;-14.42;48.44;98580.53;6374547;27;20023;-64
2021/12/30 06:32:39;;;;;;;;;;;;;;;-14.30;48.01;98573.66;6374462;27;19923;-64
2021/12/30 06:35:41;;;;;;;;;;;;;;;-14.23;47.68;98580.84;6373620;27;19930;-64
2021/12/30 06:38:44;;;;;;;;;;;;;;;-14.14;47.51;98580.50;6374479;27;19923;-64
2021/12/30 06:41:45;;;;;;;;;;;;;;;-14.00;47.96;98573.72;6374304;27;20414;-64
2021/12/30 06:44:46;;;;;;;;;;;;;;;-13.90;46.86;98566.72;6373922;27;19930;-63
2021/12/30 06:47:47;;;;;;;;;;;;;;;-13.97;46.85;98566.31;6355696;27;20430;-64
2021/12/30 06:50:52;;;;;;;;;;;;;;;-13.89;46.81;98568.47;6374106;27;19923;-63
2021/12/30 06:53:55;;;;;;;;;;;;;;;-13.90;46.17;98566.72;6373033;27;19924;-65
2021/12/30 06:56:59;;;;;;;;;;;;;;;-13.97;46.24;98562.09;6373060;27;19923;-63
2021/12/30 07:00:01;;;;;;;;;;;;;;;-14.12;46.51;98556.19;6373184;27;20417;-64
2021/12/30 07:03:03;;;;;;;;;;;;;;;-14.29;46.51;98560.25;6373581;27;20299;-63
2021/12/30 07:06:04;;;;;;;;;;;;;;;-14.44;47.38;98564.38;6373533;27;19923;-64
2021/12/30 07:09:06;;;;;;;;;;;;;;;-14.25;47.05;98567.22;6373189;27;19924;-65
2021/12/30 07:12:12;;;;;;;;;;;;;;;-14.20;47.41;98548.13;6373617;27;19923;-64
2021/12/30 07:15:13;;;;;;;;;;;;;;;-14.28;47.55;98546.81;6372933;27;19923;-63
2021/12/30 07:18:14;;;;;;;;;;;;;;;-14.31;47.85;98561.81;6373528;27;20410;-64
2021/12/30 07:21:18;;;;;;;;;;;;;;;-14.11;47.77;98550.31;6373208;27;19924;-63
2021/12/30 07:24:23;;;;;;;;;;;;;;;-13.98;47.75;98555.31;6372728;27;19928;-64
2021/12/30 07:27:26;;;;;;;;;;;;;;;-13.75;47.33;98540.56;6372525;27;19923;-64
2021/12/30 07:30:30;;;;;;;;;;;;;;;-13.55;47.36;98549.28;6372201;27;19927;-64
2021/12/30 07:33:31;;;;;;;;;;;;;;;-13.42;47.48;98546.63;6372354;27;19936;-64
2021/12/30 07:36:32;;;;;;;;;;;;;;;-13.38;46.85;98557.03;6372131;27;20029;-64
2021/12/30 07:39:36;;;;;;;;;;;;;;;-13.40;46.98;98550.13;6373088;27;19923;-64
2021/12/30 07:42:37;;;;;;;;;;;;;;;-13.32;46.68;98548.88;6372657;27;19930;-64
2021/12/30 07:45:39;;;;;;;;;;;;;;;-13.37;46.63;98551.16;6372369;27;20401;-63
2021/12/30 07:48:42;;;;;;;;;;;;;;;-13.21;46.28;98547.78;6372701;27;19931;-65
2021/12/30 07:51:43;;;;;;;;;;;;;;;-13.20;45.71;98541.91;6371903;27;20308;-63
2021/12/30 07:54:47;;;;;;;;;;;;;;;-13.29;46.56;98549.06;6354203;27;19962;-64
2021/12/30 07:57:48;;;;;;;;;;;;;;;-13.19;46.55;98540.25;6371980;27;19923;-64
2021/12/30 08:00:50;;;;;;;;;;;;;;;-13.13;47.04;98540.63;6371949;27;19927;-65
2021/12/30 08:03:53;;;;;;;;;;;;;;;-12.89;46.40;98533.44;6372583;27;19930;-64
2021/12/30 08:06:54;;;;;;;;;;;;;;;-12.95;46.57;98540.72;6372046;27;20389;-62
2021/12/30 08:09:58;;;;;;;;;;;;;;;-12.89;46.58;98531.78;6372162;27;19933;-64
2021/12/30 08:12:59;;;;;;;;;;;;;;;-12.79;46.71;98528.06;6371185;27;19927;-64
2021/12/30 08:16:02;;;;;;;;;;;;;;;-12.72;46.21;98527.59;6371018;27;19919;-63
2021/12/30 08:19:03;;;;;;;;;;;;;;;-12.77;46.86;98526.47;6370582;27;19923;-64
2021/12/30 08:22:04;;;;;;;;;;;;;;;-12.88;46.91;98530.09;6370597;27;19923;-64
2021/12/30 08:25:09;;;;;;;;;;;;;;;-12.91;47.18;98527.41;6371854;27;19930;-63
2021/12/30 08:28:12;;;;;;;;;;;;;;;-12.70;47.07;98523.47;6371821;27;19923;-63
2021/12/30 08:31:16;;;;;;;;;;;;;;;-12.45;46.18;98525.63;6372123;27;19923;-65
2021/12/30 08:34:17;;;;;;;;;;;;;;;-12.58;46.45;98522.38;6353159;27;19923;-65
2021/12/30 08:37:18;;;;;;;;;;;;;;;-12.76;46.83;98515.56;6371915;27;19955;-64
2021/12/30 08:40:20;;;;;;;;;;;;;;;-12.78;47.45;98509.53;6372099;27;19923;-63
2021/12/30 08:43:21;;;;;;;;;;;;;;;-12.48;46.98;98504.28;6371861;27;19923;-65
2021/12/30 08:46:22;;;;;;;;;;;;;;;-12.60;46.97;98506.22;6371508;28;19929;-64
2021/12/30 08:49:26;;;;;;;;;;;;;;;-12.74;47.30;98501.28;6371390;28;20023;-65
2021/12/30 08:52:29;;;;;;;;;;;;;;;-12.75;47.78;98497.03;6371652;28;20413;-64
2021/12/30 08:55:30;;;;;;;;;;;;;;;-12.66;47.15;98505.09;6371165;28;19923;-63
2021/12/30 08:58:35;;;;;;;;;;;;;;;-12.62;47.63;98500.19;6371656;28;19923;-64
2021/12/30 09:01:39;;;;;;;;;;;;;;;-12.43;47.84;98507.94;6371369;28;19930;-63
2021/12/30 09:04:45;;;;;;;;;;;;;;;-12.55;47.96;98503.13;6371460;28;20312;-63
2021/12/30 09:07:52;;;;;;;;;;;;;;;-12.55;47.92;98502.25;6371681;28;19928;-64
2021/12/30 09:10:54;;;;;;;;;;;;;;;-12.38;47.54;98501.44;6371286;28;19969;-64
2021/12/30 09:13:55;;;;;;;;;;;;;;;-12.59;47.98;98495.28;6370520;28;20428;-63
2021/12/30 09:16:58;;;;;;;;;;;;;;;-12.59;48.25;98507.97;6370431;28;20044;-64
2021/12/30 09:19:59;;;;;;;;;;;;;;;-12.80;48.28;98506.03;6370564;28;20013;-64
2021/12/30 09:23:03;;;;;;;;;;;;;;;-12.56;48.33;98495.44;6370948;28;19931;-64
2021/12/30 09:26:04;;;;;;;;;;;;;;;-12.75;48.58;98493.63;6370791;28;19931;-64
2021/12/30 09:29:10;;;;;;;;;;;;;;;-12.77;48.58;98491.00;6370946;28;19923;-64
2021/12/30 09:32:11;;;;;;;;;;;;;;;-12.96;48.69;98483.25;6374795;27;19969;-63
2021/12/30 09:35:12;;;;;;;;;;;;;;;-13.14;49.43;98483.13;6375483;27;19924;-64
2021/12/30 09:38:16;;;;;;;;;;;;;;;-13.10;49.34;98492.66;6374975;27;20363;-65
2021/12/30 09:41:17;;;;;;;;;;;;;;;-13.32;49.80;98483.06;6375732;27;20300;-64
2021/12/30 09:44:21;;;;;;;;;;;;;;;-13.29;50.37;98483.22;6375623;27;19924;-64
2021/12/30 09:47:25;;;;;;;;;;;;;;;-13.37;50.09;98480.25;6375678;27;19923;-64
2021/12/30 09:50:31;;;;;;;;;;;;;;;-13.32;50.52;98472.91;6375209;27;20336;-64
2021/12/30 09:53:32;;;;;;;;;;;;;;;-13.29;50.41;98473.06;6374198;27;19931;-67
2021/12/30 09:56:33;;;;;;;;;;;;;;;-13.22;50.34;98467.50;6374626;27;19927;-63
2021/12/30 09:59:34;;;;;;;;;;;;;;;-13.43;50.32;98469.81;6374771;27;19969;-64
2021/12/30 10:02:40;;;;;;;;;;;;;;;-13.30;50.26;98463.75;6374656;27;19927;-65
2021/12/30 10:05:41;;;;;;;;;;;;;;;-13.29;51.13;98477.28;6374784;27;19924;-65
2021/12/30 10:08:55;;;;;;;;;;;;;;;-13.35;50.71;98467.69;6375058;27;19935;-64
2021/12/30 10:12:01;;;;;;;;;;;;;;;-13.31;51.08;98473.78;6375072;27;19924;-65
2021/12/30 10:15:04;;;;;;;;;;;;;;;-13.47;51.20;98477.13;6373065;27;19962;-65
2021/12/30 10:18:05;;;;;;;;;;;;;;;-13.45;50.99;98467.97;6373837;27;19930;-65
2021/12/30 10:21:10;;;;;;;;;;;;;;;-13.15;50.42;98459.44;6374653;27;19968;-64
2021/12/30 10:24:12;;;;;;;;;;;;;;;-13.32;50.79;98472.06;6374243;27;19930;-65
2021/12/30 10:27:29;;;;;;;;;;;;;;;-13.48;51.09;98466.13;6373343;27;19926;-64
2021/12/30 10:30:34;;;;;;;;;;;;;;;-13.38;51.00;98472.59;6374260;27;19923;-64
2021/12/30 10:33:52;;;;;;;;;;;;;;;-13.43;51.74;98468.94;6374270;27;19923;-64
2021/12/30 10:36:53;;;;;;;;;;;;;;;-13.62;52.07;98474.66;6374397;27;20392;-65
2021/12/30 10:39:56;;;;;;;;;;;;;;;-13.84;52.27;98472.56;6373610;27;19927;-64
2021/12/30 10:43:20;;;;;;;;;;;;;;;-13.84;53.08;98470.03;6373607;27;20439;-65
2021/12/30 10:46:25;;;;;;;;;;;;;;;-14.08;53.38;98470.44;6372850;27;19968;-64
2021/12/30 10:49:27;;;;;;;;;;;;;;;-14.04;53.97;98469.84;6374151;27;19930;-64
2021/12/30 10:52:29;;;;;;;;;;;;;;;-13.94;53.46;98473.75;6374003;27;19931;-64
2021/12/30 10:55:32;;;;;;;;;;;;;;;-14.12;53.44;98468.53;6372827;27;19923;-64
2021/12/30 10:58:33;;;;;;;;;;;;;;;-14.37;53.89;98457.78;6373129;27;19945;-64
2021/12/30 11:01:42;;;;;;;;;;;;;;;-14.38;54.63;98450.97;6354935;27;19923;-64
2021/12/30 11:04:45;;;;;;;;;;;;;;;-14.42;54.41;98449.94;6373943;27;20300;-64
2021/12/30 11:07:47;;;;;;;;;;;;;;;-14.54;54.59;98457.72;6373733;27;19923;-64
2021/12/30 11:10:52;;;;;;;;;;;;;;;-14.65;54.99;98453.69;6373406;27;20498;-64
2021/12/30 11:13:58;;;;;;;;;;;;;;;-14.68;55.22;98448.47;6372628;27;19923;-64
2021/12/30 11:17:15;;;;;;;;;;;;;;;-14.87;55.94;98453.22;6372070;27;19925;-64
2021/12/30 11:20:20;;;;;;;;;;;;;;;-14.99;56.29;98436.56;6354429;27;19930;-64
2021/12/30 11:23:21;;;;;;;;;;;;;;;-14.79;56.41;98439.38;6373042;27;20509;-65
2021/12/30 11:26:22;;;;;;;;;;;;;;;-14.86;57.00;98447.38;6372500;27;20052;-65
2021/12/30 11:29:23;;;;;;;;;;;;;;;-14.87;56.55;98445.63;6372076;27;20415;-64
2021/12/30 11:32:29;;;;;;;;;;;;;;;-14.87;56.54;98436.41;6372383;27;19923;-65
2021/12/30 11:35:30;;;;;;;;;;;;;;;-14.97;57.87;98435.00;6372496;27;19923;-64
2021/12/30 11:38:33;;;;;;;;;;;;;;;-14.83;57.69;98427.34;6372913;27;20428;-65
2021/12/30 11:41:37;;;;;;;;;;;;;;;-15.15;57.97;98433.88;6372912;27;19924;-64
2021/12/30 11:44:40;;;;;;;;;;;;;;;-15.28;58.43;98426.34;6372843;27;19923;-66
2021/12/30 11:47:44;;;;;;;;;;;;;;;-15.38;58.60;98440.94;6372825;27;19923;-64
2021/12/30 11:50:45;;;;;;;;;;;;;;;-15.33;58.40;98435.31;6372659;27;19923;-65
2021/12/30 11:53:47;;;;;;;;;;;;;;;-15.47;58.58;98430.28;6372304;27;20506;-64
2021/12/30 11:57:07;;;;;;;;;;;;;;;-15.24;58.83;98431.69;6371810;27;19923;-64
2021/12/30 12:00:27;;;;;;;;;;;;;;;-15.15;58.70;98428.84;6371941;27;19927;-65
2021/12/30 12:03:30;;;;;;;;;;;;;;;-15.28;58.62;98421.28;6372694;27;19930;-63
2021/12/30 12:06:34;;;;;;;;;;;;;;;-15.12;58.62;98418.91;6372356;27;19923;-63
2021/12/30 12:09:38;;;;;;;;;;;;;;;-15.25;59.03;98421.50;6372345;27;20388;-64
2021/12/30 12:12:39;;;;;;;;;;;;;;;-15.23;59.03;98437.59;6371314;27;19987;-65
2021/12/30 12:15:43;;;;;;;;;;;;;;;-15.33;58.77;98437.84;6371568;27;19924;-64
2021/12/30 12:19:03;;;;;;;;;;;;;;;-15.33;59.40;98440.38;6372105;27;19923;-63
2021/12/30 12:22:25;;;;;;;;;;;;;;;-15.42;59.38;98444.06;6370801;27;20211;-64
2021/12/30 12:25:28;;;;;;;;;;;;;;;-15.49;59.32;98444.44;6370655;27;20411;-64
2021/12/30 12:28:30;;;;;;;;;;;;;;;-15.45;59.86;98441.34;6371888;27;19930;-66
2021/12/30 12:31:50;;;;;;;;;;;;;;;-15.51;59.64;98443.50;6371726;27;19923;-64
2021/12/30 12:34:53;;;;;;;;;;;;;;;-15.63;59.87;98447.78;6371205;27;20056;-64
2021/12/30 12:37:59;;;;;;;;;;;;;;;-15.67;59.92;98443.34;6371741;27;19930;-63
2021/12/30 12:41:02;;;;;;;;;;;;;;;-15.76;60.07;98442.81;6352588;27;19923;-64
2021/12/30 12:44:04;;;;;;;;;;;;;;;-15.63;60.14;98462.91;6371316;28;19927;-65
2021/12/30 12:47:15;;;;;;;;;;;;;;;-15.44;60.00;98443.09;6370858;28;20075;-63
2021/12/30 12:50:16;;;;;;;;;;;;;;;-15.48;59.52;98440.28;6371317;28;20395;-64
2021/12/30 12:53:21;;;;;;;;;;;;;;;-15.80;59.62;98435.81;6371345;28;19928;-64
2021/12/30 12:56:31;;;;;;;;;;;;;;;-15.69;60.28;98442.38;6352610;28;19919;-66
2021/12/30 12:59:35;;;;;;;;;;;;;;;-15.62;59.95;98444.50;6370758;28;20392;-66
2021/12/30 13:02:36;;;;;;;;;;;;;;;-15.69;60.25;98447.44;6370368;28;19924;-66
2021/12/30 13:06:00;;;;;;;;;;;;;;;-15.65;60.20;98434.19;6373241;27;19919;-66
2021/12/30 13:09:03;;;;;;;;;;;;;;;-15.84;60.23;98437.28;6375394;27;19930;-66
2021/12/30 13:12:07;;;;;;;;;;;;;;;-15.69;60.71;98437.34;6376495;27;20006;-65
2021/12/30 13:15:11;;;;;;;;;;;;;;;-15.41;59.41;98423.09;6376526;27;19929;-66
2021/12/30 13:18:15;;;;;;;;;;;;;;;-15.62;59.55;98427.69;6376749;27;19923;-65
2021/12/30 13:21:18;;;;;;;;;;;;;;;-15.66;59.69;98423.22;6374629;27;19930;-66
2021/12/30 13:24:24;;;;;;;;;;;;;;;-15.65;59.71;98414.00;6375872;27;20304;-64
2021/12/30 13:27:38;;;;;;;;;;;;;;;-15.66;59.62;98427.41;6375929;27;19931;-65
2021/12/30 13:30:42;;;;;;;;;;;;;;;-15.71;59.96;98428.81;6375997;27;19923;-63
2021/12/30 13:33:56;;;;;;;;;;;;;;;-15.72;59.60;98425.41;6375051;27;20346;-64
2021/12/30 13:37:28;;;;;;;;;;;;;;;-15.53;58.95;98424.00;6374947;27;19924;-63
2021/12/30 13:40:41;;;;;;;;;;;;;;;-15.50;59.04;98427.56;6354673;27;19935;-64
2021/12/30 13:43:44;;;;;;;;;;;;;;;-15.50;58.75;98430.09;6375723;27;19930;-64
2021/12/30 13:46:49;;;;;;;;;;;;;;;-15.44;59.08;98434.66;6375863;27;19923;-64
2021/12/30 13:49:52;;;;;;;;;;;;;;;-15.68;59.28;98419.78;6374951;27;19923;-64
2021/12/30 13:52:54;;;;;;;;;;;;;;;-15.70;59.41;98415.44;6375563;27;19996;-63
2021/12/30 13:55:56;;;;;;;;;;;;;;;-15.93;59.85;98407.31;6374752;27;19924;-64
2021/12/30 13:59:01;;;;;;;;;;;;;;;-15.79;60.16;98399.69;6375456;27;19931;-64
2021/12/30 14:02:09;;;;;;;;;;;;;;;-15.88;60.49;98393.34;6374455;27;19923;-63
2021/12/30 14:05:14;;;;;;;;;;;;;;;-15.83;60.54;98390.22;6374781;27;20455;-64
2021/12/30 14:08:16;;;;;;;;;;;;;;;-15.91;60.13;98390.59;6374159;27;19923;-64
2021/12/30 14:11:25;;;;;;;;;;;;;;;-15.36;59.53;98369.50;6374273;27;19923;-64
2021/12/30 14:14:28;;;;;;;;;;;;;;;-15.79;60.22;98379.53;6374338;27;19930;-65
2021/12/30 14:17:31;;;;;;;;;;;;;;;-15.85;60.05;98391.00;6373759;27;19971;-64
2021/12/30 14:20:32;;;;;;;;;;;;;;;-15.70;60.31;98377.59;6373980;27;20407;-64
2021/12/30 14:23:36;;;;;;;;;;;;;;;-15.78;59.87;98378.78;6374269;27;19930;-64
2021/12/30 14:26:41;;;;;;;;;;;;;;;-15.76;60.24;98364.63;6374012;27;20388;-65
2021/12/30 14:29:45;;;;;;;;;;;;;;;-15.86;60.13;98358.13;6374421;27;19924;-63
2021/12/30 14:32:46;;;;;;;;;;;;;;;-15.70;60.06;98354.91;6374295;27;19924;-64
2021/12/30 14:36:06;;;;;;;;;;;;;;;-15.42;60.00;98347.31;6374268;27;19920;-63
2021/12/30 14:39:18;;;;;;;;;;;;;;;-15.40;59.78;98344.09;6374314;27;19923;-64
2021/12/30 14:42:21;;;;;;;;;;;;;;;-15.18;58.89;98343.69;6374623;27;20334;-64
2021/12/30 14:45:34;;;;;;;;;;;;;;;-15.12;58.99;98340.63;6374033;27;19923;-66
2021/12/30 14:48:38;;;;;;;;;;;;;;;-15.23;59.33;98339.13;6374252;27;20322;-65
2021/12/30 14:51:42;;;;;;;;;;;;;;;-15.36;59.06;98332.50;6374149;27;19997;-64
2021/12/30 14:54:45;;;;;;;;;;;;;;;-15.29;59.52;98328.69;6373432;27;20011;-64
2021/12/30 14:57:47;;;;;;;;;;;;;;;-15.25;59.37;98331.50;6373367;27;19923;-64
2021/12/30 15:00:56;;;;;;;;;;;;;;;-15.03;59.39;98327.69;6373964;27;20026;-64
2021/12/30 15:04:00;;;;;;;;;;;;;;;-14.87;58.92;98324.38;6374006;27;20331;-65
2021/12/30 15:07:01;;;;;;;;;;;;;;;-14.83;58.86;98318.72;6372846;27;20400;-64
2021/12/30 15:10:03;;;;;;;;;;;;;;;-14.61;58.37;98319.16;6372628;27;19927;-65
2021/12/30 15:13:09;;;;;;;;;;;;;;;-14.65;58.57;98322.28;6373923;27;20311;-65
2021/12/30 15:16:13;;;;;;;;;;;;;;;-14.51;58.05;98325.56;6373215;27;20018;-66
2021/12/30 15:19:15;;;;;;;;;;;;;;;-14.44;57.99;98321.72;6372937;27;20415;-64
2021/12/30 15:22:17;;;;;;;;;;;;;;;-14.36;57.56;98316.28;6372782;27;20396;-65
2021/12/30 15:25:18;;;;;;;;;;;;;;;-14.37;57.54;98318.75;6372812;27;19923;-65
2021/12/30 15:28:21;;;;;;;;;;;;;;;-14.39;57.27;98318.66;6372134;27;19949;-66
2021/12/30 15:31:22;;;;;;;;;;;;;;;-14.43;57.68;98328.50;6372609;27;20015;-66
2021/12/30 15:34:23;;;;;;;;;;;;;;;-14.42;57.47;98322.69;6352937;27;20768;-65
2021/12/30 15:37:24;;;;;;;;;;;;;;;-14.37;57.46;98318.75;6372506;27;19923;-63
2021/12/30 15:40:28;;;;;;;;;;;;;;;-14.54;57.45;98325.44;6373033;27;20021;-63